Time;durP1;ratioP1;P1;durP2;ratioP2;P2;SDS_P1;SDS_P2;PMS_P1;PMS_P2;Temp;Humidity;BMP_temperature;BMP_pressure;BME280_temperature;BME280_humidity;BME280_pressure;Samples;Min_cycle;Max_cycle;Signal;HPM_P1;HPM_P2
2023/03/25 00:01:31;;;;;;;;;;;9.90;99.90;;;;;;5058262;28;19999;-69
2023/03/25 00:03:59;;;;;;;;;;;10.00;99.90;;;;;;4983298;28;237058;-70
2023/03/25 00:06:29;;;;;;;;;;;9.90;99.90;;;;;;5041990;28;20286;-70
2023/03/25 00:08:55;;;;;;;;;;;9.90;99.90;;;;;;5001694;28;207692;-70
2023/03/25 00:11:22;;;;;;;;;;;9.80;99.90;;;;;;5038608;28;19932;-70
2023/03/25 00:13:48;;;;;;;;;;;9.80;99.90;;;;;;5004232;28;207712;-70
2023/03/25 00:16:14;;;;;;;;;;;9.80;99.90;;;;;;5070780;28;20325;-70
2023/03/25 00:18:40;;;;;;;;;;;9.80;99.90;;;;;;5037877;28;207608;-70
2023/03/25 00:21:10;;;;;;;;;;;9.80;99.90;;;;;;5026266;28;206564;-70
2023/03/25 00:23:37;;;;;;;;;;;9.70;99.90;;;;;;5057935;28;19931;-70
2023/03/25 00:26:03;;;;;;;;;;;9.70;99.90;;;;;;5008706;28;207592;-70
2023/03/25 00:28:33;;;;;;;;;;;9.70;99.90;;;;;;5062736;28;19928;-70
2023/03/25 00:31:00;;;;;;;;;;;9.80;99.90;;;;;;5016908;28;206604;-70
2023/03/25 00:33:26;;;;;;;;;;;9.80;99.90;;;;;;5064812;28;19920;-71
2023/03/25 00:35:57;;;;;;;;;;;9.80;99.90;;;;;;5021582;28;216121;-68
2023/03/25 00:38:32;;;;;;;;;;;9.80;99.90;;;;;;5063393;28;19928;-68
2023/03/25 00:41:21;;;;;;;;;;;9.70;99.90;;;;;;5024151;28;212362;-69
2023/03/25 00:43:48;;;;;;;;;;;9.60;99.90;;;;;;5003570;28;211993;-68
2023/03/25 00:46:15;;;;;;;;;;;9.30;99.90;;;;;;5066434;28;19928;-69
2023/03/25 00:48:41;;;;;;;;;;;9.20;99.90;;;;;;5030556;28;209959;-68
2023/03/25 00:51:08;;;;;;;;;;;9.10;99.90;;;;;;5018382;28;207112;-69
2023/03/25 00:53:35;;;;;;;;;;;8.90;99.90;;;;;;5059326;28;20400;-69
2023/03/25 00:56:02;;;;;;;;;;;8.80;99.90;;;;;;5020166;28;207218;-68
2023/03/25 00:58:28;;;;;;;;;;;8.80;99.90;;;;;;5058365;28;20404;-69
2023/03/25 01:00:55;;;;;;;;;;;8.70;99.90;;;;;;5017340;28;207313;-69
2023/03/25 01:03:22;;;;;;;;;;;8.70;99.90;;;;;;5060831;28;19932;-68
2023/03/25 01:05:48;;;;;;;;;;;8.70;99.90;;;;;;5003447;28;207770;-69
2023/03/25 01:08:16;;;;;;;;;;;8.70;99.90;;;;;;5063692;28;20309;-69
2023/03/25 01:10:42;;;;;;;;;;;8.70;99.90;;;;;;5001267;28;209529;-69
2023/03/25 01:13:08;;;;;;;;;;;8.70;99.90;;;;;;5063817;28;19920;-68
2023/03/25 01:15:34;;;;;;;;;;;8.60;99.90;;;;;;5014352;28;209149;-69
2023/03/25 01:18:00;;;;;;;;;;;8.60;99.90;;;;;;5059903;28;20412;-69
2023/03/25 01:20:26;;;;;;;;;;;8.60;99.90;;;;;;5024871;28;206482;-67
2023/03/25 01:22:52;;;;;;;;;;;8.60;99.90;;;;;;5057408;28;19920;-69
2023/03/25 01:25:18;;;;;;;;;;;8.60;99.90;;;;;;5019645;28;209541;-67
2023/03/25 01:27:44;;;;;;;;;;;8.60;99.90;;;;;;5065079;28;19928;-65
2023/03/25 01:30:10;;;;;;;;;;;8.60;99.90;;;;;;5002711;28;210925;-67
2023/03/25 01:32:36;;;;;;;;;;;8.60;99.90;;;;;;5062291;28;20296;-68
2023/03/25 01:35:04;;;;;;;;;;;8.60;99.90;;;;;;5012756;28;211387;-67
2023/03/25 01:37:32;;;;;;;;;;;8.50;99.90;;;;;;5063589;28;19931;-68
2023/03/25 01:39:58;;;;;;;;;;;8.60;99.90;;;;;;5016609;28;207662;-67
2023/03/25 01:42:24;;;;;;;;;;;8.50;99.90;;;;;;5065779;28;19924;-68
2023/03/25 01:44:50;;;;;;;;;;;8.50;99.90;;;;;;5000458;28;208573;-69
2023/03/25 01:47:16;;;;;;;;;;;8.50;99.90;;;;;;5046073;28;19928;-68
2023/03/25 01:49:43;;;;;;;;;;;8.50;99.90;;;;;;5032538;28;94233;-69
2023/03/25 01:52:12;;;;;;;;;;;8.50;99.90;;;;;;5067211;28;20316;-69
2023/03/25 01:54:39;;;;;;;;;;;8.40;99.90;;;;;;5018802;28;215672;-69
2023/03/25 01:57:07;;;;;;;;;;;8.50;99.90;;;;;;5066887;28;20372;-69
2023/03/25 01:59:33;;;;;;;;;;;8.50;99.90;;;;;;5002026;28;206784;-68
2023/03/25 02:02:01;;;;;;;;;;;8.50;99.90;;;;;;5067096;28;19924;-68
2023/03/25 02:04:42;;;;;;;;;;;8.50;99.90;;;;;;5006202;28;227490;-68
2023/03/25 02:07:09;;;;;;;;;;;8.50;99.90;;;;;;5068335;28;19928;-68
2023/03/25 02:09:36;;;;;;;;;;;8.50;99.90;;;;;;5009831;28;205630;-69
2023/03/25 02:12:01;;;;;;;;;;;8.50;99.90;;;;;;5068899;28;19940;-67
2023/03/25 02:14:31;;;;;;;;;;;8.50;99.90;;;;;;5009459;28;207063;-69
2023/03/25 02:16:56;;;;;;;;;;;8.50;99.90;;;;;;5056433;28;20381;-69
2023/03/25 02:19:34;;;;;;;;;;;8.60;99.90;;;;;;5000170;28;209104;-69
2023/03/25 02:22:10;;;;;;;;;;;8.60;99.90;;;;;;5040018;28;20385;-68
2023/03/25 02:24:52;;;;;;;;;;;8.60;99.90;;;;;;5002901;28;210234;-68
2023/03/25 02:27:26;;;;;;;;;;;8.60;99.90;;;;;;5065389;28;19931;-67
2023/03/25 02:29:57;;;;;;;;;;;8.60;99.90;;;;;;4989096;28;207778;-68
2023/03/25 02:32:36;;;;;;;;;;;8.60;99.90;;;;;;5040963;28;19951;-68
2023/03/25 02:35:11;;;;;;;;;;;8.60;99.90;;;;;;5010614;28;206661;-67
2023/03/25 02:37:47;;;;;;;;;;;8.60;99.90;;;;;;5053714;28;19924;-69
2023/03/25 02:40:30;;;;;;;;;;;8.60;99.90;;;;;;5010327;28;215019;-67
2023/03/25 02:43:03;;;;;;;;;;;8.60;99.90;;;;;;5059904;28;19931;-68
2023/03/25 02:45:34;;;;;;;;;;;8.60;99.90;;;;;;5016914;28;205276;-68
2023/03/25 02:48:02;;;;;;;;;;;8.60;99.90;;;;;;5059206;28;19921;-68
2023/03/25 02:50:32;;;;;;;;;;;8.60;99.90;;;;;;4985517;28;206284;-68
2023/03/25 02:52:59;;;;;;;;;;;8.60;99.90;;;;;;5061612;28;19928;-68
2023/03/25 02:55:29;;;;;;;;;;;8.60;99.90;;;;;;5012574;28;186794;-70
2023/03/25 02:57:56;;;;;;;;;;;8.60;99.90;;;;;;5059799;28;19920;-69
2023/03/25 03:00:25;;;;;;;;;;;8.60;99.90;;;;;;5021908;28;223109;-69
2023/03/25 03:02:58;;;;;;;;;;;8.60;99.90;;;;;;5060401;28;19935;-69
2023/03/25 03:05:28;;;;;;;;;;;8.60;99.90;;;;;;4960185;28;174828;-70
2023/03/25 03:08:13;;;;;;;;;;;8.60;99.90;;;;;;5058646;28;20420;-69
2023/03/25 03:10:58;;;;;;;;;;;8.50;99.90;;;;;;5002313;28;210272;-69
2023/03/25 03:13:31;;;;;;;;;;;8.60;99.90;;;;;;5061463;28;19928;-67
2023/03/25 03:16:29;;;;;;;;;;;8.50;99.90;;;;;;4994299;28;211139;-67
2023/03/25 03:19:20;;;;;;;;;;;8.40;99.90;;;;;;4961083;28;212212;-68
2023/03/25 03:22:00;;;;;;;;;;;8.40;99.90;;;;;;5024258;28;19929;-68
2023/03/25 03:24:38;;;;;;;;;;;8.40;99.90;;;;;;4983555;28;206287;-68
2023/03/25 03:27:08;;;;;;;;;;;8.40;99.90;;;;;;5037326;28;19929;-68
2023/03/25 03:29:36;;;;;;;;;;;8.40;99.90;;;;;;4972824;28;207163;-68
2023/03/25 03:32:14;;;;;;;;;;;8.30;99.90;;;;;;5026013;28;19928;-68
2023/03/25 03:34:55;;;;;;;;;;;8.30;99.90;;;;;;4988842;28;218594;-69
2023/03/25 03:37:42;;;;;;;;;;;8.40;99.90;;;;;;5036439;28;20317;-69
2023/03/25 03:40:15;;;;;;;;;;;8.30;99.90;;;;;;4977583;28;210754;-68
2023/03/25 03:42:52;;;;;;;;;;;8.30;99.90;;;;;;5036464;28;20217;-69
2023/03/25 03:45:21;;;;;;;;;;;8.40;99.90;;;;;;4992958;28;208231;-68
2023/03/25 03:47:50;;;;;;;;;;;8.40;99.90;;;;;;5046055;28;19935;-68
2023/03/25 03:50:25;;;;;;;;;;;8.40;99.90;;;;;;4970895;28;206048;-68
2023/03/25 03:52:56;;;;;;;;;;;8.30;99.90;;;;;;5018906;28;19928;-68
2023/03/25 03:55:31;;;;;;;;;;;8.40;99.90;;;;;;4975000;28;207626;-68
2023/03/25 03:58:04;;;;;;;;;;;8.40;99.90;;;;;;5039649;28;20217;-68
2023/03/25 04:00:48;;;;;;;;;;;8.40;99.90;;;;;;4974270;28;208137;-68
2023/03/25 04:03:17;;;;;;;;;;;8.40;99.90;;;;;;5045370;28;19929;-68
2023/03/25 04:05:50;;;;;;;;;;;8.40;99.90;;;;;;4990606;28;209507;-68
2023/03/25 04:08:33;;;;;;;;;;;8.40;99.90;;;;;;5059902;28;19928;-68
2023/03/25 04:11:08;;;;;;;;;;;8.40;99.90;;;;;;5005678;28;206590;-66
2023/03/25 04:13:36;;;;;;;;;;;8.40;99.90;;;;;;5052648;28;19928;-70
2023/03/25 04:16:02;;;;;;;;;;;8.40;99.90;;;;;;5003095;28;272121;-68
2023/03/25 04:18:32;;;;;;;;;;;8.40;99.90;;;;;;5044040;28;19920;-67
2023/03/25 04:20:59;;;;;;;;;;;8.40;99.90;;;;;;4996014;28;208427;-66
2023/03/25 04:23:28;;;;;;;;;;;8.40;99.90;;;;;;5057341;28;21490;-67
2023/03/25 04:25:55;;;;;;;;;;;8.30;99.90;;;;;;5013180;28;211229;-69
2023/03/25 04:28:22;;;;;;;;;;;8.20;99.90;;;;;;5059219;28;20408;-69
2023/03/25 04:30:54;;;;;;;;;;;8.20;99.90;;;;;;5023039;28;207120;-68
2023/03/25 04:33:21;;;;;;;;;;;8.20;99.90;;;;;;5056788;28;19955;-70
2023/03/25 04:35:50;;;;;;;;;;;8.20;99.90;;;;;;5013971;28;206094;-68
2023/03/25 04:38:17;;;;;;;;;;;8.20;99.90;;;;;;5057779;28;19925;-72
2023/03/25 04:40:45;;;;;;;;;;;8.20;99.90;;;;;;5025039;28;214748;-67
2023/03/25 04:43:12;;;;;;;;;;;8.20;99.90;;;;;;5057895;28;19944;-69
2023/03/25 04:45:38;;;;;;;;;;;8.20;99.90;;;;;;4987779;28;212688;-69
2023/03/25 04:48:04;;;;;;;;;;;8.20;99.90;;;;;;5064132;28;19924;-67
2023/03/25 04:50:31;;;;;;;;;;;8.20;99.90;;;;;;5027025;28;124051;-68
2023/03/25 04:52:59;;;;;;;;;;;8.20;99.90;;;;;;5058373;28;19927;-67
2023/03/25 04:55:25;;;;;;;;;;;8.20;99.90;;;;;;4998607;28;206989;-69
2023/03/25 04:57:52;;;;;;;;;;;8.20;99.90;;;;;;5056596;28;19925;-67
2023/03/25 05:00:21;;;;;;;;;;;8.20;99.90;;;;;;4995825;28;207927;-69
2023/03/25 05:02:51;;;;;;;;;;;8.20;99.90;;;;;;5058119;28;20287;-70
2023/03/25 05:05:18;;;;;;;;;;;8.20;99.90;;;;;;4981357;28;203451;-69
2023/03/25 05:07:48;;;;;;;;;;;8.20;99.90;;;;;;5053502;28;20463;-67
2023/03/25 05:10:18;;;;;;;;;;;8.20;99.90;;;;;;5007095;28;209499;-69
2023/03/25 05:12:44;;;;;;;;;;;8.20;99.90;;;;;;5062547;28;20450;-68
2023/03/25 05:15:10;;;;;;;;;;;8.20;99.90;;;;;;5017299;28;207314;-68
2023/03/25 05:17:36;;;;;;;;;;;8.20;99.90;;;;;;5064537;28;20289;-69
2023/03/25 05:20:05;;;;;;;;;;;8.20;99.90;;;;;;5015482;28;206958;-69
2023/03/25 05:22:31;;;;;;;;;;;8.20;99.90;;;;;;5043982;28;20404;-68
2023/03/25 05:24:57;;;;;;;;;;;8.20;99.90;;;;;;5017229;28;214954;-68
2023/03/25 05:27:23;;;;;;;;;;;8.20;99.90;;;;;;5064429;28;19924;-68
2023/03/25 05:29:49;;;;;;;;;;;8.20;99.90;;;;;;5027117;28;209569;-68
2023/03/25 05:32:16;;;;;;;;;;;8.20;99.90;;;;;;5065431;28;19986;-68
2023/03/25 05:34:45;;;;;;;;;;;8.20;99.90;;;;;;5002002;28;86451;-67
2023/03/25 05:37:12;;;;;;;;;;;8.30;99.90;;;;;;5045938;28;19925;-67
2023/03/25 05:39:38;;;;;;;;;;;8.30;99.90;;;;;;5010313;28;207851;-68
2023/03/25 05:42:04;;;;;;;;;;;8.30;99.90;;;;;;5062027;28;21025;-68
2023/03/25 05:44:29;;;;;;;;;;;8.30;99.90;;;;;;4993732;28;206622;-70
2023/03/25 05:46:55;;;;;;;;;;;8.30;99.90;;;;;;5063710;28;19924;-68
2023/03/25 05:49:21;;;;;;;;;;;8.30;99.90;;;;;;5002717;28;208614;-67
2023/03/25 05:51:52;;;;;;;;;;;8.30;99.90;;;;;;5049590;28;19932;-67
2023/03/25 05:54:18;;;;;;;;;;;8.30;99.90;;;;;;4980901;28;207699;-68
2023/03/25 05:56:45;;;;;;;;;;;8.30;99.90;;;;;;5033388;28;19932;-66
2023/03/25 05:59:13;;;;;;;;;;;8.30;99.90;;;;;;4966606;28;207456;-68
2023/03/25 06:01:42;;;;;;;;;;;8.30;99.90;;;;;;5048329;28;19928;-69
2023/03/25 06:04:08;;;;;;;;;;;8.30;99.90;;;;;;4974309;28;207387;-69
2023/03/25 06:06:34;;;;;;;;;;;8.30;99.90;;;;;;5044930;28;19928;-66
2023/03/25 06:09:01;;;;;;;;;;;8.30;99.90;;;;;;4986334;28;208547;-67
2023/03/25 06:11:28;;;;;;;;;;;8.30;99.90;;;;;;5019385;28;20312;-67
2023/03/25 06:13:54;;;;;;;;;;;8.30;99.90;;;;;;4995270;28;210788;-69
2023/03/25 06:16:21;;;;;;;;;;;8.40;99.90;;;;;;5032486;28;20019;-68
2023/03/25 06:18:55;;;;;;;;;;;8.40;99.90;;;;;;4981978;28;208363;-67
2023/03/25 06:21:21;;;;;;;;;;;8.40;99.90;;;;;;5035619;28;19935;-69
2023/03/25 06:23:48;;;;;;;;;;;8.40;99.90;;;;;;4965809;28;211785;-68
2023/03/25 06:26:14;;;;;;;;;;;8.40;99.90;;;;;;5023067;28;19940;-68
2023/03/25 06:28:41;;;;;;;;;;;8.40;99.90;;;;;;5007058;28;207036;-69
2023/03/25 06:31:15;;;;;;;;;;;8.30;99.90;;;;;;4999708;28;170351;-69
2023/03/25 06:33:42;;;;;;;;;;;8.20;99.90;;;;;;4994485;28;207079;-69
2023/03/25 06:36:10;;;;;;;;;;;8.20;99.90;;;;;;4982008;28;19924;-70
2023/03/25 06:38:36;;;;;;;;;;;8.20;99.90;;;;;;5045352;28;21395;-69
2023/03/25 06:41:02;;;;;;;;;;;8.20;99.90;;;;;;4990611;28;267360;-71
2023/03/25 06:43:28;;;;;;;;;;;8.20;99.90;;;;;;5036705;28;19944;-69
2023/03/25 06:45:54;;;;;;;;;;;8.20;99.90;;;;;;4970724;28;215096;-69
2023/03/25 06:48:20;;;;;;;;;;;8.30;99.90;;;;;;5027450;28;19930;-70
2023/03/25 06:50:46;;;;;;;;;;;8.30;99.90;;;;;;4976532;28;207417;-66
2023/03/25 06:53:12;;;;;;;;;;;8.40;99.90;;;;;;5043672;28;20663;-70
2023/03/25 06:55:38;;;;;;;;;;;8.40;99.90;;;;;;4977191;28;207392;-70
2023/03/25 06:58:04;;;;;;;;;;;8.50;99.90;;;;;;5040342;28;19980;-71
2023/03/25 07:00:30;;;;;;;;;;;8.60;99.90;;;;;;4993842;28;207331;-69
2023/03/25 07:02:57;;;;;;;;;;;8.60;99.90;;;;;;5038186;28;19939;-70
2023/03/25 07:05:23;;;;;;;;;;;8.70;99.90;;;;;;4925438;28;217562;-68
2023/03/25 07:07:49;;;;;;;;;;;8.70;99.90;;;;;;5033183;28;19929;-68
2023/03/25 07:10:15;;;;;;;;;;;8.80;99.90;;;;;;4977452;28;208180;-68
2023/03/25 07:12:41;;;;;;;;;;;8.90;99.90;;;;;;5033805;28;19936;-67
2023/03/25 07:15:08;;;;;;;;;;;9.00;99.90;;;;;;4981180;28;207827;-68
2023/03/25 07:17:34;;;;;;;;;;;9.10;99.90;;;;;;5036825;28;19929;-68
2023/03/25 07:20:00;;;;;;;;;;;9.10;99.90;;;;;;4994257;28;211437;-69
2023/03/25 07:22:26;;;;;;;;;;;9.20;99.90;;;;;;5038432;28;19928;-68
2023/03/25 07:24:52;;;;;;;;;;;9.20;99.90;;;;;;4969847;28;209769;-68
2023/03/25 07:27:18;;;;;;;;;;;9.20;99.90;;;;;;5033103;28;19935;-68
2023/03/25 07:29:44;;;;;;;;;;;9.10;99.90;;;;;;4976585;28;214620;-69
2023/03/25 07:32:10;;;;;;;;;;;9.10;99.90;;;;;;5024007;28;21306;-68
2023/03/25 07:34:37;;;;;;;;;;;9.00;99.90;;;;;;4991567;28;212011;-67
2023/03/25 07:37:03;;;;;;;;;;;9.00;99.90;;;;;;5048294;28;21907;-67
2023/03/25 07:39:29;;;;;;;;;;;8.80;99.90;;;;;;4985403;28;239810;-68
2023/03/25 07:41:55;;;;;;;;;;;8.80;99.90;;;;;;5056450;28;20086;-68
2023/03/25 07:44:21;;;;;;;;;;;8.70;99.90;;;;;;5006248;28;208808;-69
2023/03/25 07:46:47;;;;;;;;;;;8.70;99.90;;;;;;5053897;28;19959;-68
2023/03/25 07:49:14;;;;;;;;;;;8.60;99.90;;;;;;5011419;28;206619;-69
2023/03/25 07:51:40;;;;;;;;;;;8.60;99.90;;;;;;5062136;28;20297;-70
2023/03/25 07:54:06;;;;;;;;;;;8.50;99.90;;;;;;5003255;28;206721;-68
2023/03/25 07:56:32;;;;;;;;;;;8.50;99.90;;;;;;5053262;28;20031;-67
2023/03/25 07:58:59;;;;;;;;;;;8.50;99.90;;;;;;5004601;28;207737;-68
2023/03/25 08:01:24;;;;;;;;;;;8.50;99.90;;;;;;5051908;28;20439;-69
2023/03/25 08:03:51;;;;;;;;;;;8.50;99.90;;;;;;4973095;28;215751;-69
2023/03/25 08:06:16;;;;;;;;;;;8.60;99.90;;;;;;5045974;28;19939;-69
2023/03/25 08:08:42;;;;;;;;;;;8.60;99.90;;;;;;5021949;28;212799;-67
2023/03/25 08:11:09;;;;;;;;;;;8.50;99.90;;;;;;5053304;28;19924;-68
2023/03/25 08:13:35;;;;;;;;;;;8.40;99.90;;;;;;5055649;28;20270;-68
2023/03/25 08:16:01;;;;;;;;;;;8.30;99.90;;;;;;5018184;28;209156;-69
2023/03/25 08:18:27;;;;;;;;;;;8.20;99.90;;;;;;5059126;28;19936;-70
2023/03/25 08:20:54;;;;;;;;;;;8.20;99.90;;;;;;4986074;28;209440;-70
2023/03/25 08:23:21;;;;;;;;;;;8.20;99.90;;;;;;5059676;28;19931;-69
2023/03/25 08:25:48;;;;;;;;;;;8.30;99.90;;;;;;5010662;28;207704;-69
2023/03/25 08:28:16;;;;;;;;;;;8.40;99.90;;;;;;5060300;28;19924;-69
2023/03/25 08:30:43;;;;;;;;;;;8.60;99.90;;;;;;4995322;28;206067;-69
2023/03/25 08:33:09;;;;;;;;;;;8.60;99.90;;;;;;5056931;28;20309;-69
2023/03/25 08:35:36;;;;;;;;;;;8.70;99.90;;;;;;5007083;28;221862;-69
2023/03/25 08:38:05;;;;;;;;;;;9.00;99.90;;;;;;5053119;28;20849;-67
2023/03/25 08:40:32;;;;;;;;;;;9.10;99.90;;;;;;4996426;28;209358;-68
2023/03/25 08:42:59;;;;;;;;;;;9.00;99.90;;;;;;5056481;28;20573;-70
2023/03/25 08:45:25;;;;;;;;;;;8.90;99.90;;;;;;4983621;28;206595;-67
2023/03/25 08:47:51;;;;;;;;;;;8.80;99.90;;;;;;5038468;28;20001;-70
2023/03/25 08:50:17;;;;;;;;;;;8.80;99.90;;;;;;4991168;28;146705;-69
2023/03/25 08:52:43;;;;;;;;;;;8.90;99.90;;;;;;5045753;28;20036;-67
2023/03/25 08:55:09;;;;;;;;;;;8.90;99.90;;;;;;4996212;28;207923;-68
2023/03/25 08:57:36;;;;;;;;;;;8.90;99.90;;;;;;5058476;28;19908;-66
2023/03/25 09:00:05;;;;;;;;;;;9.00;99.90;;;;;;5043661;28;206593;-67
2023/03/25 09:02:31;;;;;;;;;;;9.00;99.90;;;;;;5074859;28;19931;-67
2023/03/25 09:04:57;;;;;;;;;;;9.10;99.90;;;;;;4996514;28;207399;-68
2023/03/25 09:07:23;;;;;;;;;;;9.10;99.90;;;;;;5024206;28;19928;-73
2023/03/25 09:09:49;;;;;;;;;;;9.10;99.90;;;;;;4981770;28;209370;-68
2023/03/25 09:12:15;;;;;;;;;;;9.10;99.90;;;;;;5054074;28;19939;-68
2023/03/25 09:14:41;;;;;;;;;;;9.00;99.90;;;;;;5002470;28;228046;-69
2023/03/25 09:17:08;;;;;;;;;;;9.00;99.90;;;;;;5039298;28;19929;-67
2023/03/25 09:19:36;;;;;;;;;;;9.10;99.90;;;;;;5005675;28;207894;-70
2023/03/25 09:22:02;;;;;;;;;;;9.10;99.90;;;;;;5052574;28;20475;-69
2023/03/25 09:24:32;;;;;;;;;;;9.10;99.90;;;;;;5005852;28;207532;-67
2023/03/25 09:26:59;;;;;;;;;;;9.10;99.90;;;;;;5065989;28;19925;-68
2023/03/25 09:29:26;;;;;;;;;;;9.30;99.90;;;;;;5001648;28;214335;-69
2023/03/25 09:31:52;;;;;;;;;;;9.40;99.90;;;;;;5054683;28;19932;-68
2023/03/25 09:34:18;;;;;;;;;;;9.40;99.90;;;;;;5015528;28;203443;-68
2023/03/25 09:36:47;;;;;;;;;;;9.40;99.90;;;;;;5068107;28;19935;-68
2023/03/25 09:39:13;;;;;;;;;;;9.40;99.90;;;;;;5003877;28;209959;-69
2023/03/25 09:41:45;;;;;;;;;;;9.30;99.90;;;;;;5056052;28;19959;-68
2023/03/25 09:44:13;;;;;;;;;;;9.30;99.90;;;;;;5007413;28;214519;-68
2023/03/25 09:46:39;;;;;;;;;;;9.30;99.90;;;;;;5049913;28;20373;-68
2023/03/25 09:49:11;;;;;;;;;;;9.30;99.90;;;;;;5006993;28;209724;-68
2023/03/25 09:51:37;;;;;;;;;;;9.30;99.90;;;;;;5067991;28;20419;-68
2023/03/25 09:54:22;;;;;;;;;;;9.40;99.90;;;;;;5007321;28;207452;-68
2023/03/25 09:56:49;;;;;;;;;;;9.70;99.90;;;;;;5065385;28;19920;-66
2023/03/25 09:59:24;;;;;;;;;;;10.00;99.90;;;;;;5011505;28;207993;-68
2023/03/25 10:02:00;;;;;;;;;;;10.30;99.90;;;;;;5068297;28;19920;-67
2023/03/25 10:04:27;;;;;;;;;;;10.10;99.90;;;;;;4986548;28;204951;-68
2023/03/25 10:06:56;;;;;;;;;;;9.80;99.90;;;;;;5057479;28;19921;-71
2023/03/25 10:09:32;;;;;;;;;;;9.60;99.90;;;;;;5013150;28;207013;-70
2023/03/25 10:12:04;;;;;;;;;;;9.40;99.90;;;;;;5069404;28;19925;-70
2023/03/25 10:14:52;;;;;;;;;;;9.40;99.90;;;;;;5016839;28;207612;-70
2023/03/25 10:17:31;;;;;;;;;;;9.40;99.90;;;;;;5066732;28;20284;-70
2023/03/25 10:19:57;;;;;;;;;;;9.30;99.90;;;;;;5006679;28;207892;-69
2023/03/25 10:22:31;;;;;;;;;;;9.40;99.90;;;;;;5056263;28;19970;-71
2023/03/25 10:25:02;;;;;;;;;;;9.40;99.90;;;;;;5013752;28;212355;-70
2023/03/25 10:27:31;;;;;;;;;;;9.60;99.90;;;;;;5062662;28;19937;-70
2023/03/25 10:30:03;;;;;;;;;;;9.50;99.90;;;;;;4996624;28;206268;-70
2023/03/25 10:32:33;;;;;;;;;;;9.50;99.90;;;;;;5058194;28;19932;-69
2023/03/25 10:34:59;;;;;;;;;;;9.60;99.90;;;;;;5014318;28;205291;-70
2023/03/25 10:37:29;;;;;;;;;;;9.50;99.90;;;;;;5059616;28;19929;-70
2023/03/25 10:40:09;;;;;;;;;;;9.50;99.90;;;;;;4999481;28;481027;-70
2023/03/25 10:42:37;;;;;;;;;;;9.50;99.90;;;;;;5053991;28;19921;-71
2023/03/25 10:45:11;;;;;;;;;;;9.60;99.90;;;;;;5012653;28;207063;-69
2023/03/25 10:47:39;;;;;;;;;;;9.60;99.90;;;;;;5055089;28;19936;-69
2023/03/25 10:50:05;;;;;;;;;;;9.60;99.90;;;;;;5001403;28;209756;-70
2023/03/25 10:52:32;;;;;;;;;;;9.60;99.90;;;;;;5051612;28;19928;-68
2023/03/25 10:54:58;;;;;;;;;;;9.70;99.90;;;;;;5013547;28;205428;-68
2023/03/25 10:57:26;;;;;;;;;;;9.70;99.90;;;;;;5059611;28;19928;-70
2023/03/25 11:00:17;;;;;;;;;;;9.70;99.90;;;;;;4996049;28;206846;-70
2023/03/25 11:02:44;;;;;;;;;;;9.70;99.90;;;;;;5049233;28;20408;-70
2023/03/25 11:05:13;;;;;;;;;;;9.70;99.90;;;;;;4989517;28;216923;-69
2023/03/25 11:07:42;;;;;;;;;;;9.80;99.90;;;;;;5066530;28;19928;-69
2023/03/25 11:10:08;;;;;;;;;;;10.00;99.90;;;;;;5012306;28;210856;-69
2023/03/25 11:12:34;;;;;;;;;;;10.20;99.90;;;;;;5064206;28;19951;-70
2023/03/25 11:15:01;;;;;;;;;;;10.30;99.90;;;;;;5006489;28;209016;-70
2023/03/25 11:17:27;;;;;;;;;;;10.40;99.90;;;;;;5058875;28;19936;-69
2023/03/25 11:19:58;;;;;;;;;;;10.50;99.90;;;;;;5003053;28;212607;-69
2023/03/25 11:22:26;;;;;;;;;;;10.50;99.90;;;;;;5064356;28;19946;-69
2023/03/25 11:24:56;;;;;;;;;;;10.60;99.90;;;;;;5003024;28;216791;-69
2023/03/25 11:27:24;;;;;;;;;;;11.00;99.90;;;;;;5059550;28;19932;-69
2023/03/25 11:29:54;;;;;;;;;;;11.10;99.90;;;;;;5015539;28;207492;-69
2023/03/25 11:32:30;;;;;;;;;;;11.20;99.90;;;;;;5062948;28;20385;-70
2023/03/25 11:34:59;;;;;;;;;;;11.80;99.90;;;;;;5002663;28;207413;-70
2023/03/25 11:37:29;;;;;;;;;;;12.10;99.90;;;;;;5072373;28;19920;-71
2023/03/25 11:40:02;;;;;;;;;;;12.50;99.90;;;;;;5006217;28;208842;-71
2023/03/25 11:42:33;;;;;;;;;;;12.40;99.90;;;;;;5063023;28;19925;-68
2023/03/25 11:44:59;;;;;;;;;;;11.80;99.90;;;;;;5013696;28;207327;-70
2023/03/25 11:47:28;;;;;;;;;;;11.60;99.90;;;;;;5067150;28;19928;-70
2023/03/25 11:49:54;;;;;;;;;;;11.40;99.90;;;;;;5009014;28;219709;-69
2023/03/25 11:52:22;;;;;;;;;;;11.40;99.90;;;;;;5064757;28;19940;-71
2023/03/25 11:54:48;;;;;;;;;;;11.50;99.90;;;;;;5012636;28;206077;-69
2023/03/25 11:57:25;;;;;;;;;;;11.80;99.90;;;;;;5052396;28;19936;-69
2023/03/25 12:00:17;;;;;;;;;;;11.90;99.90;;;;;;5007154;28;206313;-69
2023/03/25 12:02:44;;;;;;;;;;;12.70;99.90;;;;;;5036487;28;19921;-67
2023/03/25 12:05:11;;;;;;;;;;;13.10;99.90;;;;;;4987022;28;203670;-68
2023/03/25 12:07:44;;;;;;;;;;;12.60;99.90;;;;;;5056642;28;19929;-70
2023/03/25 12:10:16;;;;;;;;;;;12.70;99.90;;;;;;5006480;28;207627;-69
2023/03/25 12:12:58;;;;;;;;;;;12.50;99.90;;;;;;5056714;28;19933;-69
2023/03/25 12:15:34;;;;;;;;;;;12.60;99.90;;;;;;4984127;28;207320;-70
2023/03/25 12:18:15;;;;;;;;;;;12.40;99.90;;;;;;5054502;28;19931;-71
2023/03/25 12:20:47;;;;;;;;;;;12.20;99.90;;;;;;5005509;28;212162;-71
2023/03/25 12:23:29;;;;;;;;;;;12.00;99.90;;;;;;5057157;28;19935;-70
2023/03/25 12:26:10;;;;;;;;;;;12.30;99.90;;;;;;4995173;28;205376;-70
2023/03/25 12:28:43;;;;;;;;;;;12.20;99.90;;;;;;5057859;28;20384;-71
2023/03/25 12:31:21;;;;;;;;;;;12.10;99.90;;;;;;4965154;28;76479;-69
2023/03/25 12:34:00;;;;;;;;;;;12.30;99.90;;;;;;5008184;28;209435;-69
2023/03/25 12:36:30;;;;;;;;;;;12.60;99.90;;;;;;5040957;28;19924;-70
2023/03/25 12:39:28;;;;;;;;;;;12.70;99.90;;;;;;5000916;28;212777;-70
2023/03/25 12:42:11;;;;;;;;;;;12.50;99.90;;;;;;5042417;28;20298;-70
2023/03/25 12:44:49;;;;;;;;;;;13.30;99.90;;;;;;4981375;28;208035;-70
2023/03/25 12:47:35;;;;;;;;;;;13.60;99.90;;;;;;5017693;28;19940;-69
2023/03/25 12:50:10;;;;;;;;;;;13.50;99.90;;;;;;4984177;28;208375;-69
2023/03/25 12:52:51;;;;;;;;;;;13.00;99.90;;;;;;5024299;28;19929;-71
2023/03/25 12:55:35;;;;;;;;;;;12.70;99.90;;;;;;4975216;28;204467;-69
2023/03/25 12:58:15;;;;;;;;;;;12.40;99.90;;;;;;5014821;28;19943;-68
2023/03/25 13:00:48;;;;;;;;;;;12.20;99.90;;;;;;4986782;28;218017;-70
2023/03/25 13:03:24;;;;;;;;;;;12.00;99.90;;;;;;5032231;28;19925;-69
2023/03/25 13:05:58;;;;;;;;;;;12.50;99.90;;;;;;4990525;28;206057;-71
2023/03/25 13:08:29;;;;;;;;;;;12.40;99.90;;;;;;4985183;28;20349;-70
2023/03/25 13:10:57;;;;;;;;;;;12.10;99.90;;;;;;4998528;28;206258;-70
2023/03/25 13:13:25;;;;;;;;;;;12.10;99.90;;;;;;5020290;28;20712;-70
2023/03/25 13:16:12;;;;;;;;;;;12.20;99.90;;;;;;4989398;28;209002;-70
2023/03/25 13:18:42;;;;;;;;;;;12.30;99.90;;;;;;5054230;28;19929;-69
2023/03/25 13:21:16;;;;;;;;;;;12.30;99.90;;;;;;4994692;28;119417;-68
2023/03/25 13:23:44;;;;;;;;;;;12.10;99.90;;;;;;5049242;28;207209;-69
2023/03/25 13:26:17;;;;;;;;;;;12.00;99.90;;;;;;5020203;28;19921;-69
2023/03/25 13:28:46;;;;;;;;;;;12.10;99.90;;;;;;5027916;28;213024;-69
2023/03/25 13:31:14;;;;;;;;;;;13.00;99.90;;;;;;5035359;28;20324;-71
2023/03/25 13:33:43;;;;;;;;;;;13.00;99.90;;;;;;5049262;28;210481;-70
2023/03/25 13:36:18;;;;;;;;;;;12.80;99.90;;;;;;5005746;28;206232;-71
2023/03/25 13:38:48;;;;;;;;;;;12.30;99.90;;;;;;5026738;28;208609;-69
2023/03/25 13:41:21;;;;;;;;;;;11.90;99.90;;;;;;5063090;28;19928;-69
2023/03/25 13:44:06;;;;;;;;;;;11.60;99.90;;;;;;4999471;28;205152;-71
2023/03/25 13:46:38;;;;;;;;;;;11.30;99.90;;;;;;5069791;28;19924;-69
2023/03/25 13:49:16;;;;;;;;;;;11.10;99.90;;;;;;5011838;28;208322;-70
2023/03/25 13:51:42;;;;;;;;;;;10.90;99.90;;;;;;5074629;28;20313;-72
2023/03/25 13:54:12;;;;;;;;;;;10.80;99.90;;;;;;5007681;28;211125;-74
2023/03/25 13:56:47;;;;;;;;;;;10.90;99.90;;;;;;5046814;28;20686;-75
2023/03/25 13:59:16;;;;;;;;;;;10.90;99.90;;;;;;5007109;28;216994;-73
2023/03/25 14:01:57;;;;;;;;;;;11.00;99.90;;;;;;5058248;28;20385;-73
2023/03/25 14:04:26;;;;;;;;;;;11.00;99.90;;;;;;4994072;28;205588;-72
2023/03/25 14:06:59;;;;;;;;;;;10.90;99.90;;;;;;5069268;28;20572;-72
2023/03/25 14:09:28;;;;;;;;;;;10.80;99.90;;;;;;5003231;28;188875;-72
2023/03/25 14:12:06;;;;;;;;;;;10.40;99.90;;;;;;5060163;28;20401;-72
2023/03/25 14:14:34;;;;;;;;;;;10.00;99.90;;;;;;5015861;28;207353;-71
2023/03/25 14:17:00;;;;;;;;;;;9.70;99.90;;;;;;5075699;28;19929;-71
2023/03/25 14:19:36;;;;;;;;;;;9.30;99.90;;;;;;5015503;28;219180;-72
2023/03/25 14:22:22;;;;;;;;;;;8.80;99.90;;;;;;5072979;28;19924;-78
2023/03/25 14:24:49;;;;;;;;;;;8.70;99.90;;;;;;5002956;28;199773;-76
2023/03/25 14:27:24;;;;;;;;;;;8.60;99.90;;;;;;5052647;28;19925;-74
2023/03/25 14:29:58;;;;;;;;;;;8.50;99.90;;;;;;5013033;28;208855;-75
2023/03/25 14:32:36;;;;;;;;;;;8.40;99.90;;;;;;5063811;28;20411;-77
2023/03/25 14:35:22;;;;;;;;;;;8.40;99.90;;;;;;4996800;28;206480;-73
2023/03/25 14:37:48;;;;;;;;;;;8.50;99.90;;;;;;5055889;28;19935;-74